Station: LAMEROO AWS

  Atmospheric Gas Attenuation - ITU Rec 676-11   --------------- db/100km ---------------
Date Time Temp RH % AH g/m3 Dew Point Wind Direction Speed kph Gust kph Barometer mB Rainfall Since 9am 24GHz 47GHz 76GHz 122GHz 134GHz 241GHz
24 19:30 38 11 5.08 2.5 17 19 1001 0 11.4 15.7 19.7 51.2 40.6 138.3
24 19:20 38.4 11 5.18 2.7 17 19 1013.1 0 11.6 16.0 20.2 52.4 41.8 142.2
24 19:10 38.8 11 5.29 3 19 22 1013.1 0 11.8 16.1 20.4 53.0 42.5 144.8
24 19:00 39.3 11 5.42 3.4 22 35 1001 0 12.0 15.8 20.3 52.8 42.9 146.3
24 18:50 39.5 11 5.48 3.5 20 24 1013.1 0 12.1 16.2 20.7 53.8 43.8 149.3
24 18:40 39.7 10 5.03 2.4 19 19 1013.1 0 11.2 15.7 19.5 50.7 39.9 135.7
24 18:30 39.9 10 5.08 2.5 24 32 1000.9 0 11.3 15.4 19.3 50.2 39.8 135.4
24 18:20 39.8 10 5.06 2.4 22 24 1013.1 0 11.3 15.7 19.6 50.8 40.1 136.4
24 18:10 39.7 11 5.53 3.7 20 22 1013.1 0 12.2 16.2 20.8 54.1 44.1 150.5
24 18:00 39.9 11 5.59 3.9 28 37 1001 0 12.4 15.9 20.6 53.6 44.0 150.3
24 17:50 40.7 10 5.29 3.1 20 22 1013.1 0 11.7 15.8 20.0 51.8 41.6 141.8
24 17:40 40.9 9 4.81 1.8 22 28 1013.1 0 10.8 15.3 18.7 48.5 37.6 127.5
24 17:30 41.3 9 4.91 2.1 26 37 1001 0 10.9 15.0 18.6 48.3 37.8 128.4
24 17:20 41.5 9 4.95 2.2 24 26 1013.1 0 11.0 15.3 18.9 49.1 38.4 130.7
24 17:10 41.4 9 4.93 2.1 22 28 1013.1 0 11.0 15.3 18.9 49.0 38.3 130.3
24 17:00 42 9 5.08 2.6 28 39 1001.4 0 11.3 15.1 18.9 49.0 38.8 132.3
24 16:50 41.9 9 5.05 2.5 24 28 1013.1 0 11.2 15.3 19.1 49.6 39.1 133.0
24 16:40 42.2 9 5.13 2.7 32 33 1013.1 0 11.4 15.4 19.2 49.9 39.6 134.8
24 16:30 42.3 8 4.58 1.2 24 39 1001.7 0 10.3 14.5 17.6 45.7 34.8 117.9
24 16:20 42.4 8 4.6 1.2 20 26 1013.1 0 10.3 14.8 17.9 46.4 35.3 119.5
24 16:10 42 8 4.51 0.9 11 15 1013.1 0 10.1 14.8 17.8 46.0 34.7 117.5
24 16:00 42.8 8 4.7 1.6 26 41 1002.2 0 10.5 14.6 17.8 46.2 35.5 120.6
24 15:50 42.1 8 4.54 1 28 35 1013.1 0 10.2 14.8 17.8 46.1 34.9 118.2
24 15:40 43 8 4.74 1.7 30 35 1013.1 0 10.6 14.9 18.1 46.9 36.1 122.6
24 15:30 41.7 9 5 2.4 26 39 1002.5 0 11.1 15.1 18.7 48.7 38.4 130.6
24 15:20 41.6 9 4.98 2.3 35 43 1013.1 0 11.1 15.3 19.0 49.3 38.6 131.4
24 15:10 41.6 9 4.98 2.3 30 35 1013.1 0 11.1 15.3 19.0 49.3 38.6 131.4
24 15:00 42.8 8 4.7 1.6 19 33 1003.3 0 10.5 14.6 17.8 46.2 35.5 120.7
24 14:50 42.5 8 4.63 1.3 35 41 1013.1 0 10.4 14.8 18.0 46.5 35.4 120.2
24 14:40 42.9 8 4.72 1.6 24 30 1013.1 0 10.5 14.9 18.1 46.9 36.0 122.2
24 14:30 41.6 8 4.43 0.7 28 46 1003.8 0 10.0 14.5 17.4 45.2 33.9 114.8
24 14:20 42.5 9 5.21 3 32 39 1013.1 0 11.5 15.4 19.4 50.3 40.1 136.6
24 14:10 40.9 9 4.81 1.8 19 24 1013.1 0 10.8 15.3 18.7 48.5 37.6 127.5
24 14:00 41.1 8 4.32 0.3 28 43 1004.2 0 9.8 14.5 17.3 44.7 33.2 112.4
24 13:50 41.5 8 4.4 0.6 26 30 1013.1 0 9.9 14.8 17.6 45.5 34.0 115.1
24 13:40 42 8 4.51 0.9 28 30 1013.1 0 10.1 14.8 17.8 46.0 34.7 117.5
24 13:30 41.9 8 4.49 0.9 30 39 1004.6 0 10.1 14.6 17.5 45.4 34.3 116.2
24 13:20 40.9 9 4.81 1.8 28 39 1013.1 0 10.8 15.3 18.7 48.5 37.6 127.5
24 13:10 41.8 9 5.03 2.4 37 41 1013.1 0 11.2 15.3 19.1 49.5 38.9 132.5
24 13:00 40.7 9 4.76 1.7 26 35 1005 0 10.7 15.0 18.4 47.8 36.9 125.5
24 12:50 41 9 4.83 1.8 24 30 1013.1 0 10.8 15.3 18.8 48.6 37.7 128.0
24 12:40 41 9 4.83 1.8 20 30 1013.1 0 10.8 15.3 18.8 48.6 37.7 128.0
24 12:30 40.2 9 4.64 1.3 24 37 1005.5 0 10.4 15.0 18.3 47.3 36.2 122.8
24 12:20 39.4 9 4.46 0.7 20 26 1013.1 0 10.1 15.1 18.2 47.0 35.3 119.6
24 12:10 39.4 9 4.46 0.7 22 26 1013.1 0 10.1 15.1 18.2 47.0 35.3 119.6
24 12:00 40.1 8 4.11 -0.4 28 41 1006 0 9.4 14.5 17.0 44.0 32.0 108.0
24 11:50 39.6 8 4 -0.8 32 37 1013.1 0 9.2 14.6 17.0 43.9 31.5 106.2
24 11:40 38.8 9 4.33 0.2 24 28 1013.1 0 9.8 15.1 18.0 46.5 34.5 116.6
24 11:30 39 9 4.37 0.4 26 35 1006.4 0 9.9 14.9 17.9 46.3 34.5 116.8
24 11:20 37.1 10 4.41 0.4 24 26 1013.1 0 10.1 15.4 18.5 47.9 35.9 121.2
24 11:10 37 11 4.82 1.7 22 26 1013.1 0 10.9 15.9 19.6 50.8 39.4 133.6
24 11:00 36.3 11 4.65 1.2 30 37 1006.9 0 10.6 15.6 19.1 49.6 38.0 128.8
24 10:50 36.5 11 4.7 1.3 30 37 1013.1 0 10.7 15.8 19.4 50.2 38.6 130.7
24 10:40 36.1 12 5.03 2.2 32 35 1013.1 0 11.3 16.2 20.3 52.8 41.6 141.3
24 10:30 35.8 13 5.36 3.1 32 39 1007.2 0 12.0 16.5 21.1 54.9 44.4 151.2
24 10:20 34.8 13 5.09 2.3 28 33 1013.1 0 11.5 16.5 20.8 54.0 42.7 145.3
24 10:10 34.4 14 5.37 3 30 32 1013.1 0 12.1 16.9 21.7 56.3 45.4 154.8
24 10:00 34.5 14 5.39 3.1 32 39 1007.4 0 12.1 16.7 21.5 56.0 45.3 154.5
24 09:50 34.4 14 5.37 3 33 39 1013.1 0 12.1 16.9 21.7 56.3 45.4 154.8
24 09:40 33.9 15 5.6 3.6 32 37 1013.1 0 12.6 17.2 22.4 58.3 47.8 163.0
24 09:30 33 17 6.05 4.7 28 35 1007.6 0 13.5 17.8 23.7 61.9 52.2 178.6
24 09:20 32.3 19 6.52 5.7 28 32 1013.1 0 14.5 18.6 25.5 66.4 57.4 196.7
24 09:10 31.6 20 6.61 5.9 30 35 1013.1 0 14.7 18.8 25.9 67.7 58.7 201.4
24 09:00 31 21 6.72 6.1 32 37 1007.7 0 14.9 18.9 26.3 68.6 59.9 205.6
24 08:50 29.9 23 6.94 6.5 26 32 1013.1 0 15.4 19.6 27.4 71.7 63.2 217.0
24 08:40 29 23 6.61 5.7 32 35 1013.1 0 14.8 19.4 26.7 69.8 60.6 207.6
24 08:30 29 24 6.89 6.4 30 35 1007.6 0 15.4 19.5 27.4 71.6 63.1 216.5
24 08:20 28.1 25 6.84 6.2 30 33 1013.1 0 15.3 19.8 27.7 72.4 63.6 218.1
24 08:10 27.1 28 7.25 7 24 30 1013.1 0 16.2 20.6 29.4 76.7 68.7 235.8
24 08:00 26.3 29 7.18 6.9 24 30 1007.7 0 16.1 20.5 29.2 76.4 68.3 234.3
24 07:50 25.5 31 7.34 7.1 26 30 1013.1 0 16.4 21.0 30.2 79.0 71.0 243.7
24 07:40 24.9 31 7.1 7 22 28 1013.1 0 15.9 20.9 29.6 77.5 68.9 236.4
24 07:30 24.1 34 7.44 7.3 22 28 1007.4 0 16.7 21.3 30.9 80.8 72.9 250.6
24 07:20 23.5 35 7.4 7.5 19 22 1013.1 0 16.6 21.6 31.2 81.5 73.4 252.1
24 07:10 23.3 37 7.74 7.8 22 24 1013.1 0 17.3 22.1 32.4 84.8 77.4 266.0
24 07:00 23 38 7.81 7.9 19 24 1007.3 0 17.5 22.1 32.5 85.2 78.1 268.5
24 06:50 22.6 39 7.83 7.9 19 19 1013.1 0 17.6 22.4 33.0 86.3 79.1 271.9
24 06:40 22.5 40 7.99 8.2 19 20 1013.1 0 17.9 22.6 33.6 87.9 81.0 278.7
24 06:30 22.3 40 7.9 8.1 19 20 1007.3 0 17.7 22.4 33.1 86.8 79.8 274.4
24 06:20 22.3 40 7.9 8 17 19 1013.1 0 17.7 22.6 33.3 87.3 80.2 275.7
24 06:10 22.3 40 7.9 8 17 19 1013.1 0 17.7 22.6 33.3 87.3 80.2 275.7
24 06:00 22.5 39 7.79 7.9 19 20 1007.2 0 17.5 22.2 32.6 85.5 78.3 269.3
24 05:50 22.9 39 7.97 8.2 19 20 1013.1 0 17.8 22.5 33.3 87.3 80.4 276.5
24 05:40 22.8 38 7.72 7.7 20 22 1013.1 0 17.3 22.2 32.5 85.1 77.6 266.9
24 05:30 22.8 38 7.72 7.8 19 24 1007.1 0 17.3 22.0 32.3 84.6 77.2 265.5
24 05:20 22.8 38 7.72 7.7 19 20 1013.1 0 17.3 22.2 32.5 85.1 77.6 266.9
24 04:50 23.3 36 7.53 7.4 19 20 1013.1 0 16.9 21.8 31.7 82.9 75.0 257.8
24 04:40 23.4 36 7.57 7.5 19 20 1013.1 0 17.0 21.8 31.8 83.1 75.4 259.0
24 04:30 23 37 7.6 7.5 19 22 1006.9 0 17.1 21.8 31.8 83.3 75.7 260.1
24 04:20 22.5 37 7.39 7.1 17 19 1013.1 0 16.6 21.8 31.5 82.4 74.2 254.8
24 04:10 22.2 37 7.26 6.8 19 19 1013.1 0 16.4 21.7 31.2 81.5 73.0 250.6
24 04:00 21.9 38 7.33 7 17 19 1007 0 16.6 21.7 31.3 81.9 73.7 252.9
24 03:50 21.5 38 7.16 6.9 17 17 1013.1 0 16.2 21.7 31.1 81.3 72.5 248.7
24 03:40 21.8 38 7.29 6.8 15 17 1013.1 0 16.5 21.8 31.4 82.2 73.7 253.0
24 03:30 21.5 38 7.16 6.6 15 17 1007 0 16.2 21.5 30.9 80.8 72.1 247.4
24 03:20 22.1 36 7.03 6.3 15 15 1013.1 0 15.9 21.4 30.4 79.5 70.5 241.8
24 03:10 22.7 35 7.07 6.4 15 17 1013.1 0 16.0 21.3 30.3 79.3 70.5 241.6
24 03:00 23.2 34 7.07 6.5 17 20 1007.1 0 16.0 21.0 29.9 78.3 69.7 238.9
24 02:50 23.2 33 6.86 6.4 17 19 1013.1 0 15.5 20.9 29.5 77.0 67.7 232.1
24 02:40 23.9 33 7.14 6.6 15 17 1013.1 0 16.1 21.1 30.1 78.8 70.2 240.8

Last Refresh: 24-Jan-2021 19:42:08

Most of the information presented on this site is sourced from the Bureau of Meteorology.  Copyright in all material sourced from the Bureau of Meteorology resides with the Commonwealth of Australia.